Detall de PIREP

Printer-friendly versionPDF version

[2014/11/24 08:47:00]
Flight IATA:CT3250
Pilot Number:042
Company ICAO:CAT
Aircraft Type:A320/E
PAX:95
Departing Airport: LEPA
Destination Airport: EYVI
Alternate Airport:EYSA
Online: VATSIM
Route:MEROS UN853 LUMAS UM985 TAGIP UT876 OGEPI UM726 KOGOL UN871 DOKEL UP733 TOMTI P733 KMI M994 GOMED G354 KRAKI M874 ELEKA
Flight Level:F350
No Slew and time accel
No pause
Crash detect
Detect pilot in Cockpit between each 30 and 45 minutes
08:47 Zero fuel Weight: 121806 Lbs, Fuel Weight: 41739 Lbs
08:47 VATSIM:LEPA 240830Z 36002KT CAVOK 16/15 Q1016 NOSIG
08:47 VATSIM:EYVI 240820Z 16005KT 4000 BR NSC M03/M04 Q1032 R20/1///95 NOSIG
08:49 Parking Brakes off
08:55 Take-off
08:55 Take off Weight: 162728 Lbs
08:55 Wind: 000º @ 001 Knots Heading: 057º
08:55 POS N39º 33´ 00´´ E002º 45´ 02´´
08:55 Gear Up: 141 Knots
08:55 Flaps:3 at 141 Knots
08:56 Flaps:2 at 164 Knots
08:56 Flaps:0 at 207 Knots
09:10 Wind:030º@003 Knots Heading: 013º Ground Speed: 520 Knots Altitude 34875 ft
09:10 TOC
09:10 Fuel Weight: 38071 Lb
09:25 Wind:008º@012 Knots Heading: 038º Ground Speed: 510 Knots Altitude 35196 ft
10:40 Wind:050º@000 Knots Heading: 039º Ground Speed: 510 Knots Altitude 35255 ft
11:55 Wind:161º@010 Knots Heading: 035º Ground Speed: 513 Knots Altitude 35259 ft
12:10 Wind:169º@018 Knots Heading: 076º Ground Speed: 508 Knots Altitude 35308 ft
12:19 TOD
12:19 Fuel Weight: 21533 Lb
12:25 Wind:150º@011 Knots Heading: 090º Ground Speed: 419 Knots Altitude 22516 ft
12:40 Wind:157º@009 Knots Heading: 108º Ground Speed: 233 Knots Altitude 8687 ft
12:47 Flaps:1 at 203 Knots
12:47 Flaps:3 at 199 Knots
12:48 Flaps:4 at 171 Knots
12:49 Flaps:2 at 169 Knots
12:49 Flaps:0 at 169 Knots
12:54 Flaps:1 at 198 Knots
12:55 Wind:158º@009 Knots Heading: 043º Ground Speed: 203 Knots Altitude 4980 ft
12:59 Flaps:3 at 187 Knots
13:00 Flaps:4 at 178 Knots
13:00 Gear Down: 176 Knots
13:00 Flaps:5 at 172 Knots
13:03 TouchDown:Rate -200 ft/min Speed: 139 Knots
13:03 VATSIM:EYVI 241250Z 16009KT 4400 BR NSC M01/M03 Q1029 R20/1///95 NOSIG
13:03 Land
13:03 Wind:158º@009 Knots
13:03 Heading: 203º
13:03 Flight Duration: 04:08
13:03 Landing Weight: 140607 Lbs
13:03 POS N54º 37´ 56´´ E025º 17´ 04´´
13:08 Parking brakes on
13:08 Block to Block Duration: 04:19
13:08 Final Fuel: 18567 Lbls
13:08 Spent Fuel: 23172 Lbls
13:08 Flight Length: 556 NM
13:08 TOD Land Length: 121 NM

Exportar CSV

Powered by Drupal - Modified by Danger4k